Time;durP1;ratioP1;P1;durP2;ratioP2;P2;SDS_P1;SDS_P2;PMS_P1;PMS_P2;Temp;Humidity;BMP_temperature;BMP_pressure;BME280_temperature;BME280_humidity;BME280_pressure;Samples;Min_cycle;Max_cycle;Signal;HPM_P1;HPM_P2
2023/03/06 00:00:20;;;;;;;14.60;9.40;;;;;;;2.97;100.00;-18107.59;5043062;28;20040;-83
2023/03/06 00:02:45;;;;;;;13.60;8.43;;;;;;;2.93;100.00;-18106.75;5046766;28;20037;-84
2023/03/06 00:05:12;;;;;;;14.20;9.20;;;;;;;2.94;100.00;-18106.91;5041803;28;20053;-85
2023/03/06 00:07:37;;;;;;;14.27;8.40;;;;;;;2.91;100.00;-18106.19;5024354;28;20080;-84
2023/03/06 00:10:03;;;;;;;14.65;9.90;;;;;;;2.91;100.00;-18106.06;5046103;28;21460;-84
2023/03/06 00:12:28;;;;;;;14.63;9.52;;;;;;;2.96;100.00;-18107.31;5048095;28;20037;-84
2023/03/06 00:14:54;;;;;;;14.48;10.18;;;;;;;2.94;100.00;-18107.03;5038768;28;20087;-85
2023/03/06 00:17:19;;;;;;;15.20;8.63;;;;;;;2.90;100.00;-18105.94;5034911;28;20037;-87
2023/03/06 00:19:45;;;;;;;13.63;9.30;;;;;;;2.92;100.00;-18106.47;5042604;28;20528;-86
2023/03/06 00:22:13;;;;;;;16.88;8.30;;;;;;;2.91;100.00;-18106.19;5034266;28;20061;-85
2023/03/06 00:24:39;;;;;;;14.13;9.40;;;;;;;2.92;100.00;-18106.34;5029444;28;20053;-85
2023/03/06 00:27:05;;;;;;;17.02;10.77;;;;;;;2.92;100.00;-18106.34;5040490;28;20103;-84
2023/03/06 00:29:30;;;;;;;18.55;10.82;;;;;;;2.86;100.00;-18104.81;5017387;28;20045;-85
2023/03/06 00:31:56;;;;;;;18.98;12.15;;;;;;;2.88;100.00;-18105.38;5049564;28;20045;-85
2023/03/06 00:34:21;;;;;;;15.05;9.95;;;;;;;2.91;100.00;-18106.19;5038713;28;20205;-85
2023/03/06 00:36:47;;;;;;;16.17;10.60;;;;;;;2.86;100.00;-18104.69;5035188;28;20041;-86
2023/03/06 00:39:12;;;;;;;16.48;9.80;;;;;;;2.82;100.00;-18103.72;5034462;28;20033;-84
2023/03/06 00:41:37;;;;;;;21.05;11.25;;;;;;;2.82;100.00;-18103.72;5026998;28;20147;-85
2023/03/06 00:44:03;;;;;;;16.95;12.00;;;;;;;2.86;100.00;-18104.69;5064297;28;20071;-86
2023/03/06 00:46:28;;;;;;;15.10;8.65;;;;;;;2.82;100.00;-18103.72;5040955;28;20064;-84
2023/03/06 00:48:54;;;;;;;14.10;8.85;;;;;;;2.80;100.00;-18103.16;5041345;28;20062;-84
2023/03/06 00:51:20;;;;;;;15.68;11.20;;;;;;;2.87;100.00;-18105.09;5034057;28;20037;-86
2023/03/06 00:53:46;;;;;;;16.30;9.35;;;;;;;2.83;100.00;-18104.00;5050078;28;20052;-84
2023/03/06 00:56:11;;;;;;;17.67;12.30;;;;;;;2.80;100.00;-18103.16;5057839;28;20041;-85
2023/03/06 00:58:36;;;;;;;15.40;9.15;;;;;;;2.80;100.00;-18103.16;5049798;28;20568;-84
2023/03/06 01:01:03;;;;;;;16.40;10.18;;;;;;;2.79;100.00;-18102.88;5046941;28;20110;-87
2023/03/06 01:03:28;;;;;;;15.75;9.60;;;;;;;2.75;100.00;-18101.78;5034598;28;20029;-84
2023/03/06 01:05:53;;;;;;;16.27;9.70;;;;;;;2.78;100.00;-18102.47;5051966;28;20045;-88
2023/03/06 01:08:19;;;;;;;15.90;10.98;;;;;;;2.77;100.00;-18102.19;5052691;28;20045;-84
2023/03/06 01:10:44;;;;;;;13.95;10.38;;;;;;;2.78;100.00;-18102.59;5051888;28;20068;-86
2023/03/06 01:13:10;;;;;;;14.00;8.68;;;;;;;2.75;100.00;-18101.78;5052867;28;20037;-86
2023/03/06 01:15:35;;;;;;;14.13;9.55;;;;;;;2.73;100.00;-18101.22;5051333;28;20094;-85
2023/03/06 01:18:00;;;;;;;13.38;9.55;;;;;;;2.74;100.00;-18101.38;5047373;28;20403;-85
2023/03/06 01:20:26;;;;;;;14.75;8.80;;;;;;;2.76;100.00;-18102.06;5040727;28;20044;-83
2023/03/06 01:22:54;;;;;;;13.65;9.55;;;;;;;2.77;100.00;-18102.34;5038550;28;20033;-83
2023/03/06 01:25:19;;;;;;;15.48;8.98;;;;;;;2.75;100.00;-18101.78;5054210;28;20037;-84
2023/03/06 01:27:45;;;;;;;12.45;8.27;;;;;;;2.78;100.00;-18102.47;5038496;28;20463;-84
2023/03/06 01:30:11;;;;;;;14.15;7.75;;;;;;;2.75;100.00;-18101.63;5056347;28;20037;-83
2023/03/06 01:32:37;;;;;;;13.57;8.15;;;;;;;2.73;100.00;-18101.22;5057380;28;20036;-83
2023/03/06 01:35:02;;;;;;;16.77;9.00;;;;;;;2.74;100.00;-18101.38;5057996;28;20096;-83
2023/03/06 01:37:28;;;;;;;13.07;7.32;;;;;;;2.75;100.00;-18101.63;5045606;28;20056;-83
2023/03/06 01:39:54;;;;;;;11.30;8.75;;;;;;;2.76;100.00;-18101.91;5040063;28;20072;-84
2023/03/06 01:42:19;;;;;;;14.98;8.82;;;;;;;2.77;100.00;-18102.19;5073380;28;20040;-84
2023/03/06 01:45:03;;;;;;;10.98;6.95;;;;;;;2.73;100.00;-18101.22;5058249;28;20479;-84
2023/03/06 01:47:29;;;;;;;10.60;6.57;;;;;;;2.71;100.00;-18100.69;5058513;28;20065;-83
2023/03/06 01:49:56;;;;;;;11.93;7.22;;;;;;;2.72;100.00;-18100.94;5040699;28;20069;-83
2023/03/06 01:52:37;;;;;;;11.75;7.22;;;;;;;2.74;100.00;-18101.50;5060097;28;20037;-83
2023/03/06 01:55:09;;;;;;;9.23;6.07;;;;;;;2.69;100.00;-18100.25;5039288;28;20501;-83
2023/03/06 01:57:39;;;;;;;11.27;7.68;;;;;;;2.66;100.00;-18099.28;5038725;28;20045;-83
2023/03/06 02:00:12;;;;;;;9.75;6.32;;;;;;;2.65;100.00;-18099.00;5039975;28;20504;-84
2023/03/06 02:02:40;;;;;;;9.82;6.60;;;;;;;2.65;100.00;-18099.16;5038536;28;20034;-83
2023/03/06 02:05:06;;;;;;;11.45;6.47;;;;;;;2.65;100.00;-18099.00;5033021;28;20049;-82
2023/03/06 02:07:33;;;;;;;8.80;6.03;;;;;;;2.62;100.00;-18098.19;5020000;28;20045;-83
2023/03/06 02:09:58;;;;;;;8.60;5.90;;;;;;;2.63;100.00;-18098.47;5030775;28;20688;-84
2023/03/06 02:12:25;;;;;;;10.40;6.43;;;;;;;2.53;100.00;-18095.69;5023856;28;20112;-84
2023/03/06 02:14:50;;;;;;;11.75;7.03;;;;;;;2.51;100.00;-18095.28;5023620;28;20045;-84
2023/03/06 02:17:18;;;;;;;12.02;6.95;;;;;;;2.47;100.00;-18094.31;5030296;28;20107;-84
2023/03/06 02:20:06;;;;;;;9.07;6.38;;;;;;;2.44;100.00;-18093.47;5026724;28;20072;-84
2023/03/06 02:23:13;;;;;;;10.50;5.53;;;;;;;2.41;100.00;-18092.66;5026439;28;20037;-83
2023/03/06 02:25:42;;;;;;;12.15;6.82;;;;;;;2.40;100.00;-18092.38;5008774;28;20045;-84
2023/03/06 02:28:12;;;;;;;10.88;6.50;;;;;;;2.42;100.00;-18092.78;5029552;28;20067;-84
2023/03/06 02:30:38;;;;;;;9.90;5.97;;;;;;;2.32;100.00;-18090.16;5022898;28;20389;-83
2023/03/06 02:33:04;;;;;;;11.80;6.18;;;;;;;2.31;100.00;-18089.88;5031691;28;20037;-84
2023/03/06 02:35:33;;;;;;;8.65;5.78;;;;;;;2.32;100.00;-18090.03;5030425;28;20034;-84
2023/03/06 02:38:03;;;;;;;8.95;5.60;;;;;;;2.26;100.00;-18088.63;5036529;28;20124;-84
2023/03/06 02:40:29;;;;;;;10.88;6.68;;;;;;;2.26;100.00;-18088.50;5039298;28;20052;-84
2023/03/06 02:42:56;;;;;;;9.80;5.97;;;;;;;2.23;100.00;-18087.81;5033596;28;20663;-84
2023/03/06 02:45:37;;;;;;;11.45;5.22;;;;;;;2.20;100.00;-18086.97;5044666;28;20496;-84
2023/03/06 02:48:03;;;;;;;9.38;6.43;;;;;;;2.19;100.00;-18086.56;5043085;28;20041;-84
2023/03/06 02:50:28;;;;;;;10.60;6.95;;;;;;;2.11;100.00;-18084.34;5040563;28;20140;-84
2023/03/06 02:52:54;;;;;;;9.57;7.03;;;;;;;2.10;100.00;-18084.06;5041620;28;20049;-84
2023/03/06 02:55:19;;;;;;;10.02;6.95;;;;;;;2.05;100.00;-18082.69;5041079;28;20041;-85
2023/03/06 02:57:44;;;;;;;12.18;8.20;;;;;;;2.01;100.00;-18081.88;5045997;28;20041;-84
2023/03/06 03:00:11;;;;;;;13.57;6.90;;;;;;;2.01;100.00;-18081.72;5029031;28;20037;-84
2023/03/06 03:02:37;;;;;;;12.65;5.90;;;;;;;1.98;100.00;-18081.03;5027695;28;20052;-84
2023/03/06 03:05:03;;;;;;;10.15;7.30;;;;;;;1.95;100.00;-18080.19;5041769;28;20641;-84
2023/03/06 03:07:28;;;;;;;11.82;6.75;;;;;;;1.97;100.00;-18080.75;5031454;28;20049;-84
2023/03/06 03:09:53;;;;;;;14.05;8.35;;;;;;;1.93;100.00;-18079.66;5037512;28;20056;-85
2023/03/06 03:12:21;;;;;;;11.00;8.23;;;;;;;1.92;100.00;-18079.22;5042745;28;20037;-84
2023/03/06 03:14:46;;;;;;;12.27;8.05;;;;;;;1.84;100.00;-18077.00;5044532;28;20094;-84
2023/03/06 03:17:12;;;;;;;10.88;7.47;;;;;;;1.86;100.00;-18077.72;5045410;28;20037;-84
2023/03/06 03:19:37;;;;;;;12.38;9.38;;;;;;;1.84;100.00;-18077.16;5045468;28;20033;-85
2023/03/06 03:22:02;;;;;;;11.55;8.73;;;;;;;1.80;100.00;-18076.19;5023783;28;20051;-84
2023/03/06 03:24:27;;;;;;;14.20;9.40;;;;;;;1.76;100.00;-18075.09;5045227;28;20128;-85
2023/03/06 03:26:53;;;;;;;16.95;9.93;;;;;;;1.74;100.00;-18074.53;5055068;28;20067;-85
2023/03/06 03:29:19;;;;;;;15.23;10.02;;;;;;;1.71;100.00;-18073.56;5064010;28;20041;-87
2023/03/06 03:31:44;;;;;;;15.10;10.10;;;;;;;1.69;100.00;-18073.00;5052867;28;20100;-87
2023/03/06 03:34:09;;;;;;;15.50;11.65;;;;;;;1.70;100.00;-18073.28;5042821;28;20136;-86
2023/03/06 03:36:35;;;;;;;18.52;12.38;;;;;;;1.67;100.00;-18072.44;5054547;28;20056;-86
2023/03/06 03:39:00;;;;;;;15.95;13.00;;;;;;;1.64;100.00;-18071.63;5048498;28;20045;-86
2023/03/06 03:41:26;;;;;;;16.08;11.05;;;;;;;1.64;100.00;-18071.75;5056327;28;20041;-85
2023/03/06 03:43:51;;;;;;;20.75;14.48;;;;;;;1.66;100.00;-18072.31;5047094;28;20068;-84
2023/03/06 03:46:17;;;;;;;17.75;13.25;;;;;;;1.65;100.00;-18071.91;5055819;28;20502;-85
2023/03/06 03:48:42;;;;;;;20.33;14.43;;;;;;;1.66;100.00;-18072.19;5028188;28;20037;-84
2023/03/06 03:51:10;;;;;;;21.73;14.65;;;;;;;1.62;100.00;-18071.22;5044289;28;20042;-85
2023/03/06 03:53:35;;;;;;;19.55;13.40;;;;;;;1.62;100.00;-18071.06;5045485;28;20063;-85
2023/03/06 03:56:01;;;;;;;23.35;15.77;;;;;;;1.65;100.00;-18072.03;5041426;28;20998;-84
2023/03/06 03:58:26;;;;;;;26.35;18.90;;;;;;;1.58;100.00;-18070.25;5046381;28;20030;-84
2023/03/06 04:00:51;;;;;;;27.08;18.92;;;;;;;1.61;100.00;-18070.78;5040312;28;20128;-85
2023/03/06 04:03:17;;;;;;;26.25;17.30;;;;;;;1.62;100.00;-18071.22;5048418;28;20048;-84
2023/03/06 04:05:42;;;;;;;30.35;20.38;;;;;;;1.58;100.00;-18070.25;5047288;28;20052;-86
2023/03/06 04:08:08;;;;;;;31.05;22.27;;;;;;;1.59;100.00;-18070.38;5051414;28;20056;-85
2023/03/06 04:10:33;;;;;;;30.67;20.48;;;;;;;1.57;100.00;-18069.97;5046569;28;20463;-88
2023/03/06 04:12:59;;;;;;;32.97;19.40;;;;;;;1.55;100.00;-18069.41;5043222;28;20067;-84
2023/03/06 04:15:25;;;;;;;36.88;22.65;;;;;;;1.59;100.00;-18070.38;5046280;28;20489;-85
2023/03/06 04:17:51;;;;;;;37.15;25.13;;;;;;;1.62;100.00;-18071.06;5030017;28;20051;-85
2023/03/06 04:20:17;;;;;;;34.85;22.95;;;;;;;1.57;100.00;-18069.81;5047520;28;20396;-86
2023/03/06 04:22:42;;;;;;;36.90;23.88;;;;;;;1.61;100.00;-18070.78;5049605;28;20041;-86
2023/03/06 04:25:08;;;;;;;35.90;23.08;;;;;;;1.58;100.00;-18070.25;5051111;28;20068;-84
2023/03/06 04:27:33;;;;;;;40.10;23.63;;;;;;;1.62;100.00;-18071.06;5046885;28;20052;-87
2023/03/06 04:29:59;;;;;;;36.95;20.88;;;;;;;1.62;100.00;-18071.22;5045492;28;20037;-86
2023/03/06 04:32:24;;;;;;;40.55;25.60;;;;;;;1.63;100.00;-18071.47;5051437;28;20068;-84
2023/03/06 04:34:50;;;;;;;40.60;25.27;;;;;;;1.60;100.00;-18070.50;5042038;28;20045;-85
2023/03/06 04:37:20;;;;;;;44.33;27.10;;;;;;;1.60;100.00;-18070.50;5049205;28;20484;-86
2023/03/06 04:39:46;;;;;;;40.50;25.20;;;;;;;1.64;100.00;-18071.63;5040276;28;20451;-84
2023/03/06 04:42:12;;;;;;;38.70;18.48;;;;;;;1.58;100.00;-18070.09;5045359;28;20071;-84
2023/03/06 04:44:37;;;;;;;40.42;25.08;;;;;;;1.63;100.00;-18071.47;5053586;28;20164;-85
2023/03/06 04:47:03;;;;;;;37.20;20.90;;;;;;;1.62;100.00;-18071.06;5021270;28;20102;-85
2023/03/06 04:49:28;;;;;;;42.35;27.15;;;;;;;1.67;100.00;-18072.44;5025748;28;20420;-85
2023/03/06 04:51:53;;;;;;;40.65;24.17;;;;;;;1.69;100.00;-18073.16;5042017;28;20110;-87
2023/03/06 04:54:19;;;;;;;39.42;21.60;;;;;;;1.66;100.00;-18072.31;5030881;28;20068;-83
2023/03/06 04:56:44;;;;;;;42.72;24.95;;;;;;;1.68;100.00;-18072.88;5040706;28;20037;-85
2023/03/06 04:59:09;;;;;;;43.33;24.10;;;;;;;1.72;100.00;-18073.84;5039799;28;20053;-84
2023/03/06 05:01:35;;;;;;;39.90;23.65;;;;;;;1.72;100.00;-18073.97;5046320;28;20540;-84
2023/03/06 05:04:00;;;;;;;39.28;22.95;;;;;;;1.71;100.00;-18073.56;5045419;28;20091;-88
2023/03/06 05:06:25;;;;;;;44.30;27.02;;;;;;;1.74;100.00;-18074.38;5046112;28;20033;-85
2023/03/06 05:08:51;;;;;;;42.90;22.75;;;;;;;1.75;100.00;-18074.66;5044410;28;20044;-84
2023/03/06 05:11:16;;;;;;;41.05;24.05;;;;;;;1.77;100.00;-18075.34;5048169;28;20036;-86
2023/03/06 05:13:41;;;;;;;44.92;27.33;;;;;;;1.80;100.00;-18076.19;5039014;28;20565;-84
2023/03/06 05:16:07;;;;;;;37.95;22.48;;;;;;;1.79;100.00;-18075.78;5042355;28;20056;-85
2023/03/06 05:18:33;;;;;;;45.08;24.58;;;;;;;1.81;100.00;-18076.31;5024399;28;20099;-85
2023/03/06 05:20:59;;;;;;;42.58;28.70;;;;;;;1.86;100.00;-18077.56;5044060;28;20547;-84
2023/03/06 05:23:30;;;;;;;41.15;20.85;;;;;;;1.85;100.00;-18077.44;5045368;28;20041;-85
2023/03/06 05:25:56;;;;;;;42.80;27.40;;;;;;;1.83;100.00;-18076.75;5050702;28;20043;-85
2023/03/06 05:28:21;;;;;;;43.83;27.55;;;;;;;1.86;100.00;-18077.72;5027714;28;20436;-85
2023/03/06 05:30:47;;;;;;;41.63;24.30;;;;;;;1.87;100.00;-18078.00;5045921;28;20060;-84
2023/03/06 05:33:13;;;;;;;38.95;21.90;;;;;;;1.85;100.00;-18077.44;5045785;28;20040;-84
2023/03/06 05:35:38;;;;;;;37.78;24.42;;;;;;;1.85;100.00;-18077.44;5034452;28;20063;-84
2023/03/06 05:38:03;;;;;;;39.58;24.63;;;;;;;1.88;100.00;-18078.25;5043892;28;20120;-84
2023/03/06 05:40:29;;;;;;;37.40;20.77;;;;;;;1.86;100.00;-18077.72;5046721;28;20063;-84
2023/03/06 05:42:54;;;;;;;41.47;27.92;;;;;;;1.85;100.00;-18077.44;5033362;28;20076;-83
2023/03/06 05:45:20;;;;;;;31.38;16.83;;;;;;;1.87;100.00;-18077.84;5041182;28;20095;-84
2023/03/06 05:47:46;;;;;;;38.28;19.83;;;;;;;1.87;100.00;-18078.00;5040211;28;20041;-84
2023/03/06 05:50:12;;;;;;;39.78;24.50;;;;;;;1.89;100.00;-18078.53;5048771;28;20484;-84
2023/03/06 05:52:38;;;;;;;39.40;23.40;;;;;;;1.94;100.00;-18079.94;5044113;28;20056;-84
2023/03/06 05:55:05;;;;;;;36.75;21.10;;;;;;;1.89;100.00;-18078.41;5042361;28;20051;-84
2023/03/06 05:57:30;;;;;;;35.95;21.98;;;;;;;1.90;100.00;-18078.81;5037443;28;20072;-84
2023/03/06 05:59:56;;;;;;;36.58;17.67;;;;;;;1.90;100.00;-18078.81;5051716;28;20048;-83
2023/03/06 06:02:21;;;;;;;38.05;24.85;;;;;;;1.90;100.00;-18078.81;5022310;28;20484;-83
2023/03/06 06:04:47;;;;;;;35.42;17.33;;;;;;;1.88;100.00;-18078.25;5040959;28;20048;-83
2023/03/06 06:07:14;;;;;;;32.05;17.98;;;;;;;1.91;100.00;-18079.09;5045325;28;20500;-83
2023/03/06 06:09:39;;;;;;;31.70;20.60;;;;;;;1.91;100.00;-18078.97;5043571;28;20033;-83
2023/03/06 06:12:05;;;;;;;29.73;17.65;;;;;;;1.89;100.00;-18078.41;5038964;28;20075;-85
2023/03/06 06:14:32;;;;;;;31.05;16.25;;;;;;;1.87;100.00;-18078.00;5037292;28;20053;-84
2023/03/06 06:16:58;;;;;;;34.05;20.02;;;;;;;1.89;100.00;-18078.53;5039333;28;20051;-84
2023/03/06 06:19:24;;;;;;;39.13;23.95;;;;;;;1.88;100.00;-18078.13;5044183;28;20506;-84
2023/03/06 06:21:52;;;;;;;34.28;23.80;;;;;;;1.89;100.00;-18078.53;5042502;28;20040;-84
2023/03/06 06:24:20;;;;;;;29.98;17.88;;;;;;;1.85;100.00;-18077.44;5036967;28;20095;-84
2023/03/06 06:26:49;;;;;;;32.58;18.55;;;;;;;1.86;100.00;-18077.72;5036254;28;20056;-84
2023/03/06 06:29:14;;;;;;;31.52;20.08;;;;;;;1.87;100.00;-18078.00;5041676;28;20041;-83
2023/03/06 06:31:40;;;;;;;38.15;24.73;;;;;;;1.90;100.00;-18078.81;5037117;28;20051;-84
2023/03/06 06:34:07;;;;;;;35.08;21.20;;;;;;;1.85;100.00;-18077.44;5042480;28;20045;-83
2023/03/06 06:36:33;;;;;;;40.92;26.92;;;;;;;1.80;100.00;-18076.06;5044684;28;20037;-83
2023/03/06 06:38:58;;;;;;;39.60;25.83;;;;;;;1.75;100.00;-18074.66;5044115;28;20514;-83
2023/03/06 06:41:25;;;;;;;33.03;17.10;;;;;;;1.68;100.00;-18072.88;5050438;28;20048;-83
2023/03/06 06:43:50;;;;;;;32.47;20.35;;;;;;;1.73;100.00;-18074.13;5042801;28;20044;-83
2023/03/06 06:46:16;;;;;;;29.55;17.15;;;;;;;1.72;100.00;-18073.97;5041224;28;20065;-84
2023/03/06 06:48:41;;;;;;;38.20;23.60;;;;;;;1.78;100.00;-18075.50;5043787;28;20131;-83
2023/03/06 06:51:06;;;;;;;35.95;23.17;;;;;;;1.78;100.00;-18075.50;5043668;28;20068;-83
2023/03/06 06:53:32;;;;;;;44.53;28.48;;;;;;;1.76;100.00;-18075.09;5043969;28;20210;-83
2023/03/06 06:55:58;;;;;;;41.97;29.35;;;;;;;1.81;100.00;-18076.31;5045488;28;20124;-83
2023/03/06 06:58:25;;;;;;;48.33;27.60;;;;;;;1.86;100.00;-18077.72;5043897;28;20064;-83
2023/03/06 07:00:50;;;;;;;41.17;24.63;;;;;;;1.88;100.00;-18078.25;5042902;28;20038;-83
2023/03/06 07:03:16;;;;;;;43.15;28.05;;;;;;;1.87;100.00;-18078.00;5043503;28;20036;-83
2023/03/06 07:05:41;;;;;;;36.90;21.08;;;;;;;1.87;100.00;-18078.00;5022920;28;20053;-83
2023/03/06 07:08:07;;;;;;;42.08;23.27;;;;;;;1.83;100.00;-18076.88;5039257;28;20049;-83
2023/03/06 07:10:32;;;;;;;40.40;24.80;;;;;;;1.83;100.00;-18076.75;5045063;28;20090;-83
2023/03/06 07:12:58;;;;;;;49.67;32.20;;;;;;;1.82;100.00;-18076.59;5038089;28;20047;-83
2023/03/06 07:15:25;;;;;;;48.13;28.27;;;;;;;1.86;100.00;-18077.56;5042206;28;20045;-83
2023/03/06 07:17:51;;;;;;;47.20;27.65;;;;;;;1.84;100.00;-18077.16;5036247;28;20423;-83
2023/03/06 07:20:18;;;;;;;40.15;22.98;;;;;;;1.86;100.00;-18077.72;5039753;28;20100;-84
2023/03/06 07:22:44;;;;;;;47.17;29.80;;;;;;;1.87;100.00;-18077.84;5042493;28;20037;-84
2023/03/06 07:25:09;;;;;;;32.42;19.05;;;;;;;1.86;100.00;-18077.72;5034581;28;20048;-84
2023/03/06 07:27:34;;;;;;;40.47;24.85;;;;;;;1.88;100.00;-18078.25;5038533;28;20052;-84
2023/03/06 07:30:00;;;;;;;48.55;29.00;;;;;;;1.92;100.00;-18079.22;5037395;28;20047;-84
2023/03/06 07:32:25;;;;;;;36.20;21.48;;;;;;;1.93;100.00;-18079.66;5037594;28;20053;-84
2023/03/06 07:34:50;;;;;;;39.80;23.83;;;;;;;1.95;100.00;-18080.19;5038515;28;20048;-84
2023/03/06 07:37:16;;;;;;;41.55;23.88;;;;;;;1.95;100.00;-18080.19;5020800;28;20044;-84
2023/03/06 07:39:41;;;;;;;40.25;19.35;;;;;;;2.00;100.00;-18081.59;5035148;28;20088;-83
2023/03/06 07:42:11;;;;;;;50.85;30.83;;;;;;;2.01;100.00;-18081.88;5029019;28;20040;-84
2023/03/06 07:44:36;;;;;;;;;;;;;;;1.95;100.00;-18080.19;5026329;28;20052;-83
2023/03/06 07:47:03;;;;;;;37.30;21.98;;;;;;;1.87;100.00;-18078.00;5046766;28;19924;-83
2023/03/06 07:49:29;;;;;;;39.72;22.15;;;;;;;1.92;100.00;-18079.38;5047851;28;20049;-84
2023/03/06 07:51:54;;;;;;;38.15;22.45;;;;;;;1.93;100.00;-18079.66;5030860;28;20044;-84
2023/03/06 07:54:19;;;;;;;51.15;30.52;;;;;;;1.98;100.00;-18081.03;5046940;28;20052;-84
2023/03/06 07:56:48;;;;;;;45.58;27.55;;;;;;;2.00;100.00;-18081.59;5043649;28;20043;-83
2023/03/06 07:59:13;;;;;;;44.17;24.52;;;;;;;2.07;100.00;-18083.25;5045280;28;20060;-85
2023/03/06 08:01:39;;;;;;;42.58;26.80;;;;;;;2.10;100.00;-18084.06;5044222;28;20413;-85
2023/03/06 08:04:04;;;;;;;38.38;18.77;;;;;;;2.12;100.00;-18084.63;5044023;28;20059;-83
2023/03/06 08:06:31;;;;;;;46.55;24.33;;;;;;;2.15;100.00;-18085.47;5047755;28;20037;-84
2023/03/06 08:08:57;;;;;;;42.80;24.35;;;;;;;2.12;100.00;-18084.63;5042824;28;20052;-84
2023/03/06 08:11:25;;;;;;;42.65;20.90;;;;;;;2.12;100.00;-18084.75;5031659;28;20041;-85
2023/03/06 08:13:52;;;;;;;42.88;24.13;;;;;;;2.15;100.00;-18085.47;5039305;28;20499;-83
2023/03/06 08:16:22;;;;;;;42.88;25.80;;;;;;;2.20;100.00;-18086.84;5024330;28;20281;-84
2023/03/06 08:18:48;;;;;;;41.42;23.70;;;;;;;2.18;100.00;-18086.44;5046524;28;20097;-83
2023/03/06 08:21:16;;;;;;;40.55;24.38;;;;;;;2.23;100.00;-18087.66;5046836;28;20047;-84
2023/03/06 08:23:42;;;;;;;39.15;22.40;;;;;;;2.24;100.00;-18087.94;5041309;28;20055;-83
2023/03/06 08:26:12;;;;;;;45.55;28.20;;;;;;;2.31;100.00;-18089.75;5039294;28;20049;-84
2023/03/06 08:28:37;;;;;;;41.58;26.35;;;;;;;2.37;100.00;-18091.53;5042765;28;20044;-83
2023/03/06 08:31:12;;;;;;;43.55;27.40;;;;;;;2.35;100.00;-18091.00;5050081;28;20049;-85
2023/03/06 08:33:39;;;;;;;37.45;21.90;;;;;;;2.39;100.00;-18092.09;5045730;28;20571;-84
2023/03/06 08:36:04;;;;;;;37.92;26.08;;;;;;;2.44;100.00;-18093.34;5049366;28;20499;-84
2023/03/06 08:38:30;;;;;;;36.67;24.58;;;;;;;2.46;100.00;-18094.03;5038674;28;20052;-85
2023/03/06 08:40:55;;;;;;;36.95;24.88;;;;;;;2.54;100.00;-18096.09;5044503;28;20075;-86
2023/03/06 08:43:20;;;;;;;35.13;20.63;;;;;;;2.58;100.00;-18097.06;5042093;28;20041;-84
2023/03/06 08:45:52;;;;;;;34.03;19.17;;;;;;;2.64;100.00;-18098.72;5046192;28;20520;-84
2023/03/06 08:48:17;;;;;;;32.72;21.95;;;;;;;2.64;100.00;-18098.72;5043873;28;20045;-85
2023/03/06 08:50:42;;;;;;;33.42;21.73;;;;;;;2.62;100.00;-18098.31;5047528;28;20047;-84
2023/03/06 08:53:08;;;;;;;30.63;20.23;;;;;;;2.66;100.00;-18099.28;5038468;28;20493;-84
2023/03/06 08:55:36;;;;;;;31.58;17.85;;;;;;;2.70;100.00;-18100.41;5027005;28;20065;-84
2023/03/06 08:58:03;;;;;;;27.95;17.38;;;;;;;2.68;100.00;-18099.84;5041206;28;20041;-85
2023/03/06 09:00:28;;;;;;;28.90;19.13;;;;;;;2.66;100.00;-18099.28;5029279;28;20106;-84
2023/03/06 09:02:54;;;;;;;26.20;18.65;;;;;;;2.65;100.00;-18099.00;5044155;28;20599;-84
2023/03/06 09:05:19;;;;;;;28.30;19.55;;;;;;;2.69;100.00;-18100.13;5045766;28;20041;-84
2023/03/06 09:07:44;;;;;;;25.58;18.98;;;;;;;2.69;100.00;-18100.13;5042586;28;20053;-85
2023/03/06 09:10:19;;;;;;;24.50;15.98;;;;;;;2.72;100.00;-18100.94;5010291;28;20053;-84
2023/03/06 09:12:45;;;;;;;27.52;18.20;;;;;;;2.73;100.00;-18101.22;5031331;28;20080;-85
2023/03/06 09:15:12;;;;;;;20.88;14.10;;;;;;;2.72;100.00;-18100.94;5031004;28;20053;-84
2023/03/06 09:17:38;;;;;;;22.85;16.15;;;;;;;2.79;100.00;-18102.75;5030846;28;20056;-84
2023/03/06 09:20:06;;;;;;;27.52;16.95;;;;;;;2.78;100.00;-18102.59;5034511;28;20107;-83
2023/03/06 09:22:31;;;;;;;54.60;27.75;;;;;;;2.77;100.00;-18102.34;5040804;28;20037;-84
2023/03/06 09:24:57;;;;;;;40.22;22.50;;;;;;;2.86;100.00;-18104.81;5032756;28;20064;-84
2023/03/06 09:27:22;;;;;;;41.25;21.63;;;;;;;2.85;100.00;-18104.41;5039559;28;20076;-85
2023/03/06 09:29:48;;;;;;;22.42;15.15;;;;;;;2.88;100.00;-18105.38;5038776;28;20051;-84
2023/03/06 09:32:13;;;;;;;17.23;12.35;;;;;;;2.82;100.00;-18103.56;5041786;28;20052;-84
2023/03/06 09:34:39;;;;;;;19.65;13.18;;;;;;;2.87;100.00;-18105.09;5018400;28;20048;-84
2023/03/06 09:37:04;;;;;;;20.85;13.57;;;;;;;2.89;100.00;-18105.66;5032813;28;20045;-84
2023/03/06 09:39:30;;;;;;;16.77;12.70;;;;;;;2.87;100.00;-18104.97;5032096;28;20041;-84
2023/03/06 09:41:57;;;;;;;16.70;12.50;;;;;;;2.94;100.00;-18107.03;5028856;28;20124;-84
2023/03/06 09:44:26;;;;;;;15.75;11.30;;;;;;;2.96;100.00;-18107.31;5029920;28;20500;-86
2023/03/06 09:47:30;;;;;;;17.83;12.60;;;;;;;3.06;100.00;-18110.06;5045364;28;20663;-84
2023/03/06 09:50:05;;;;;;;14.05;9.48;;;;;;;3.10;100.00;-18111.19;5046254;28;20090;-85
2023/03/06 09:53:08;;;;;;;11.68;8.73;;;;;;;3.13;100.00;-18112.00;5042067;28;20124;-85
2023/03/06 09:55:39;;;;;;;10.45;7.25;;;;;;;3.13;100.00;-18112.00;5050385;28;20037;-86
2023/03/06 09:58:25;;;;;;;11.75;8.60;;;;;;;3.19;100.00;-18113.53;5040490;28;20084;-84
2023/03/06 10:01:15;;;;;;;9.48;7.75;;;;;;;3.28;100.00;-18116.16;5029600;28;21044;-84
2023/03/06 10:04:05;;;;;;;10.95;7.75;;;;;;;3.39;100.00;-18119.19;5026060;28;20049;-87
2023/03/06 10:06:47;;;;;;;7.95;5.68;;;;;;;3.34;100.00;-18117.81;5023133;28;20056;-83
2023/03/06 10:09:24;;;;;;;8.68;5.88;;;;;;;3.39;100.00;-18119.19;5027407;28;20040;-84
2023/03/06 10:11:59;;;;;;;10.10;6.75;;;;;;;3.49;100.00;-18121.81;5045827;28;20049;-83
2023/03/06 10:14:42;;;;;;;8.52;5.35;;;;;;;3.51;100.00;-18122.22;5038259;28;20053;-84
2023/03/06 10:17:16;;;;;;;7.07;5.70;;;;;;;3.59;100.00;-18124.59;5022716;28;20049;-84
2023/03/06 10:19:42;;;;;;;8.73;5.70;;;;;;;3.65;100.00;-18126.09;5040193;28;20041;-85
2023/03/06 10:22:37;;;;;;;6.25;5.43;;;;;;;3.69;100.00;-18127.06;5040292;28;20041;-84
2023/03/06 10:25:26;;;;;;;7.65;5.82;;;;;;;3.70;100.00;-18127.50;5017295;28;20041;-85
2023/03/06 10:28:01;;;;;;;6.90;5.50;;;;;;;3.67;100.00;-18126.66;5042478;28;20041;-84
2023/03/06 10:30:44;;;;;;;5.97;4.72;;;;;;;3.67;100.00;-18126.53;5043458;28;20100;-83
2023/03/06 10:33:25;;;;;;;6.40;5.07;;;;;;;3.98;100.00;-18134.94;5028070;28;20467;-85
2023/03/06 10:35:53;;;;;;;5.95;4.45;;;;;;;3.96;100.00;-18134.53;5036135;28;20428;-85
2023/03/06 10:38:20;;;;;;;6.70;4.60;;;;;;;4.23;100.00;-18141.72;5039855;28;20045;-85
2023/03/06 10:41:06;;;;;;;6.13;3.70;;;;;;;4.25;100.00;-18142.41;5042363;28;20131;-85
2023/03/06 10:43:33;;;;;;;4.13;2.78;;;;;;;4.40;100.00;-18146.28;5050400;28;20045;-83
2023/03/06 10:45:59;;;;;;;4.43;3.00;;;;;;;4.27;100.00;-18142.97;5038168;28;20044;-85
2023/03/06 10:48:27;;;;;;;4.20;2.90;;;;;;;4.23;100.00;-18141.72;5040491;28;20037;-84
2023/03/06 10:51:21;;;;;;;3.92;3.00;;;;;;;4.33;100.00;-18144.47;5037031;28;20046;-84
2023/03/06 10:54:02;;;;;;;3.78;2.47;;;;;;;4.22;100.00;-18141.44;5014352;28;20501;-85
2023/03/06 10:56:38;;;;;;;5.38;3.45;;;;;;;4.19;100.00;-18140.63;5035851;28;20045;-85
2023/03/06 10:59:24;;;;;;;6.55;4.78;;;;;;;4.09;100.00;-18137.84;5042958;28;20037;-84
2023/03/06 11:02:27;;;;;;;5.25;3.53;;;;;;;4.21;100.00;-18141.16;5027019;28;20041;-83
2023/03/06 11:04:54;;;;;;;4.30;2.85;;;;;;;4.23;100.00;-18141.84;5037273;28;20040;-85
2023/03/06 11:07:22;;;;;;;5.00;3.33;;;;;;;4.30;100.00;-18143.78;5040909;28;20050;-84
2023/03/06 11:09:56;;;;;;;4.95;3.45;;;;;;;4.57;100.00;-18150.97;5041779;28;20102;-85
2023/03/06 11:12:27;;;;;;;4.43;2.95;;;;;;;4.58;100.00;-18151.25;5021667;28;20040;-84
2023/03/06 11:15:20;;;;;;;4.20;2.70;;;;;;;4.56;100.00;-18150.69;5027312;28;20126;-85
2023/03/06 11:18:21;;;;;;;3.72;2.55;;;;;;;4.66;100.00;-18153.31;5023777;28;20191;-85